Time;durP1;ratioP1;P1;durP2;ratioP2;P2;SDS_P1;SDS_P2;PMS_P1;PMS_P2;Temp;Humidity;BMP_temperature;BMP_pressure;BME280_temperature;BME280_humidity;BME280_pressure;Samples;Min_cycle;Max_cycle;Signal;HPM_P1;HPM_P2
2022/07/18 00:02:15;;;;;;;6.60;3.93;;;;;;;;;;5116537;28;20469;-73
2022/07/18 00:04:42;;;;;;;5.10;4.20;;;;;;;;;;5116283;27;20481;-73
2022/07/18 00:07:10;;;;;;;3.73;3.43;;;;;;;;;;5116284;28;20458;-73
2022/07/18 00:09:38;;;;;;;3.80;3.37;;;;;;;;;;5116349;28;20454;-73
2022/07/18 00:12:08;;;;;;;4.93;4.53;;;;;;;;;;5116411;27;20469;-73
2022/07/18 00:14:36;;;;;;;5.27;3.97;;;;;;;;;;5116223;28;20817;-73
2022/07/18 00:17:03;;;;;;;3.27;2.90;;;;;;;;;;5116287;28;20450;-72
2022/07/18 00:19:31;;;;;;;4.07;3.77;;;;;;;;;;5115968;28;20461;-73
2022/07/18 00:21:58;;;;;;;5.57;4.10;;;;;;;;;;5116126;27;20478;-73
2022/07/18 00:24:25;;;;;;;8.10;5.63;;;;;;;;;;5115756;28;20852;-73
2022/07/18 00:26:52;;;;;;;3.87;3.47;;;;;;;;;;5115952;28;20951;-73
2022/07/18 00:29:20;;;;;;;3.67;3.37;;;;;;;;;;5116045;28;20450;-73
2022/07/18 00:31:47;;;;;;;4.70;4.30;;;;;;;;;;5115861;28;20462;-73
2022/07/18 00:34:15;;;;;;;4.17;3.80;;;;;;;;;;5115701;28;20448;-73
2022/07/18 00:36:42;;;;;;;4.87;3.70;;;;;;;;;;5115910;28;20453;-73
2022/07/18 00:39:09;;;;;;;5.97;4.03;;;;;;;;;;5115724;28;20457;-72
2022/07/18 00:41:36;;;;;;;4.40;4.00;;;;;;;;;;5115581;28;20494;-72
2022/07/18 00:44:03;;;;;;;5.83;4.27;;;;;;;;;;5115518;28;20962;-72
2022/07/18 00:46:32;;;;;;;4.60;4.00;;;;;;;;;;5115494;28;20481;-73
2022/07/18 00:48:59;;;;;;;5.33;4.50;;;;;;;;;;5115706;27;20453;-72
2022/07/18 00:51:26;;;;;;;7.80;3.93;;;;;;;;;;5115065;28;20527;-72
2022/07/18 00:53:53;;;;;;;6.73;3.50;;;;;;;;;;5114831;28;20943;-72
2022/07/18 00:56:21;;;;;;;5.43;4.60;;;;;;;;;;5115440;27;20453;-72
2022/07/18 00:58:49;;;;;;;5.70;4.10;;;;;;;;;;5115650;28;20446;-72
2022/07/18 01:04:02;;;;;;;5.10;4.17;;;;;;;;;;5115348;28;20467;-72
2022/07/18 01:06:29;;;;;;;5.37;3.93;;;;;;;;;;5115138;28;20485;-72
2022/07/18 01:08:58;;;;;;;4.60;4.13;;;;;;;;;;5115269;28;20862;-72
2022/07/18 01:11:25;;;;;;;4.20;3.80;;;;;;;;;;5115016;28;20928;-73
2022/07/18 01:13:52;;;;;;;4.30;3.40;;;;;;;;;;5114940;28;20457;-73
2022/07/18 01:16:20;;;;;;;5.30;4.03;;;;;;;;;;5115122;28;20453;-72
2022/07/18 01:18:47;;;;;;;4.67;4.20;;;;;;;;;;5115142;27;20453;-73
2022/07/18 01:21:16;;;;;;;4.70;4.00;;;;;;;;;;5114896;28;20453;-73
2022/07/18 01:23:43;;;;;;;5.10;4.57;;;;;;;;;;5114883;28;20823;-73
2022/07/18 01:26:10;;;;;;;6.30;4.70;;;;;;;;;;5114735;28;20496;-72
2022/07/18 01:28:38;;;;;;;4.50;4.10;;;;;;;;;;5114891;28;20450;-72
2022/07/18 01:31:05;;;;;;;5.00;4.00;;;;;;;;;;5114756;27;20449;-72
2022/07/18 01:33:32;;;;;;;21.83;15.93;;;;;;;;;;5114537;28;20815;-72
2022/07/18 01:36:00;;;;;;;8.03;5.63;;;;;;;;;;5114794;28;20482;-72
2022/07/18 01:38:28;;;;;;;4.57;4.07;;;;;;;;;;5114594;28;20457;-72
2022/07/18 01:40:56;;;;;;;4.77;4.13;;;;;;;;;;5114721;28;20449;-72
2022/07/18 01:43:23;;;;;;;8.30;4.17;;;;;;;;;;5114316;27;20497;-72
2022/07/18 01:45:50;;;;;;;4.70;4.30;;;;;;;;;;5114355;28;20478;-72
2022/07/18 01:48:18;;;;;;;6.27;4.60;;;;;;;;;;5114394;27;20452;-72
2022/07/18 01:50:46;;;;;;;5.00;4.60;;;;;;;;;;5114520;28;20453;-72
2022/07/18 01:53:13;;;;;;;5.57;5.13;;;;;;;;;;5113833;28;20477;-72
2022/07/18 01:55:41;;;;;;;4.20;3.80;;;;;;;;;;5114115;28;20453;-72
2022/07/18 01:58:09;;;;;;;5.00;4.13;;;;;;;;;;5114303;28;20503;-72
2022/07/18 02:00:36;;;;;;;6.53;5.50;;;;;;;;;;5114210;28;20453;-72
2022/07/18 02:03:03;;;;;;;8.30;6.30;;;;;;;;;;5114119;28;20466;-72
2022/07/18 02:05:30;;;;;;;6.60;3.97;;;;;;;;;;5113027;28;20485;-72
2022/07/18 02:07:57;;;;;;;5.23;4.00;;;;;;;;;;5114001;28;20454;-72
2022/07/18 02:10:24;;;;;;;5.83;3.70;;;;;;;;;;5114082;28;20523;-73
2022/07/18 02:12:52;;;;;;;4.97;4.20;;;;;;;;;;5114150;28;20466;-72
2022/07/18 02:15:20;;;;;;;5.13;4.63;;;;;;;;;;5113783;28;20457;-72
2022/07/18 02:17:47;;;;;;;5.20;3.80;;;;;;;;;;5113938;28;20454;-72
2022/07/18 02:20:15;;;;;;;4.70;3.53;;;;;;;;;;5113694;28;20461;-73
2022/07/18 02:22:42;;;;;;;7.37;4.53;;;;;;;;;;5113889;28;20914;-72
2022/07/18 02:25:09;;;;;;;4.37;3.97;;;;;;;;;;5113590;28;20480;-72
2022/07/18 02:27:37;;;;;;;4.10;3.70;;;;;;;;;;5113679;28;20461;-72
2022/07/18 02:30:06;;;;;;;5.77;4.67;;;;;;;;;;5113776;28;20820;-72
2022/07/18 02:32:36;;;;;;;4.83;3.53;;;;;;;;;;5113521;28;21004;-73
2022/07/18 02:35:04;;;;;;;4.37;3.97;;;;;;;;;;5113449;28;20460;-72
2022/07/18 02:37:31;;;;;;;5.00;4.30;;;;;;;;;;5113832;28;20457;-73
2022/07/18 02:39:58;;;;;;;4.30;3.90;;;;;;;;;;5113531;28;20454;-72
2022/07/18 02:42:25;;;;;;;5.73;4.37;;;;;;;;;;5113468;28;20462;-72
2022/07/18 02:44:52;;;;;;;5.37;4.40;;;;;;;;;;5113158;28;20466;-72
2022/07/18 02:47:21;;;;;;;5.50;4.97;;;;;;;;;;5113417;28;20445;-72
2022/07/18 02:49:48;;;;;;;5.07;4.57;;;;;;;;;;5113544;28;20465;-72
2022/07/18 02:52:15;;;;;;;6.20;4.93;;;;;;;;;;5113134;28;21017;-73
2022/07/18 02:54:42;;;;;;;6.53;5.70;;;;;;;;;;5113446;28;20818;-72
2022/07/18 02:57:09;;;;;;;6.93;5.90;;;;;;;;;;5113392;28;20457;-72
2022/07/18 02:59:36;;;;;;;4.37;3.97;;;;;;;;;;5113361;28;20457;-72
2022/07/18 03:02:03;;;;;;;4.87;4.47;;;;;;;;;;5113365;28;20465;-73
2022/07/18 03:04:32;;;;;;;5.60;5.07;;;;;;;;;;5113190;28;20827;-73
2022/07/18 03:06:59;;;;;;;6.40;4.37;;;;;;;;;;5113253;28;20486;-72
2022/07/18 03:09:27;;;;;;;6.63;4.93;;;;;;;;;;5113287;28;20460;-72
2022/07/18 03:11:54;;;;;;;4.53;4.13;;;;;;;;;;5113231;28;20477;-72
2022/07/18 03:14:22;;;;;;;5.03;4.63;;;;;;;;;;5112979;28;20445;-72
2022/07/18 03:16:49;;;;;;;6.10;4.40;;;;;;;;;;5113679;28;20471;-72
2022/07/18 03:19:16;;;;;;;13.37;8.80;;;;;;;;;;5117339;28;20449;-72
2022/07/18 03:21:44;;;;;;;5.20;4.70;;;;;;;;;;5117253;28;20473;-72
2022/07/18 03:24:13;;;;;;;5.47;4.60;;;;;;;;;;5116992;28;20460;-72
2022/07/18 03:26:41;;;;;;;6.53;4.80;;;;;;;;;;5117057;28;21068;-72
2022/07/18 03:29:08;;;;;;;4.13;3.80;;;;;;;;;;5116944;28;20458;-72
2022/07/18 03:31:35;;;;;;;4.93;4.43;;;;;;;;;;5117008;28;20481;-72
2022/07/18 03:34:02;;;;;;;5.93;4.60;;;;;;;;;;5116968;28;20445;-72
2022/07/18 03:36:30;;;;;;;4.67;4.27;;;;;;;;;;5116972;28;20949;-72
2022/07/18 03:38:58;;;;;;;6.13;4.50;;;;;;;;;;5116999;28;20457;-72
2022/07/18 03:41:25;;;;;;;5.80;4.10;;;;;;;;;;5116909;28;21081;-72
2022/07/18 03:43:52;;;;;;;5.80;5.10;;;;;;;;;;5116834;28;20441;-73
2022/07/18 03:46:19;;;;;;;5.00;4.60;;;;;;;;;;5116699;28;20480;-72
2022/07/18 03:48:46;;;;;;;5.00;4.50;;;;;;;;;;5116940;28;20857;-72
2022/07/18 03:51:13;;;;;;;5.37;4.80;;;;;;;;;;5116502;28;20823;-72
2022/07/18 03:53:40;;;;;;;4.97;4.47;;;;;;;;;;5116635;28;20456;-72
2022/07/18 03:56:09;;;;;;;5.20;4.30;;;;;;;;;;5116678;28;20437;-72
2022/07/18 03:58:36;;;;;;;9.00;4.93;;;;;;;;;;5116963;28;20472;-72
2022/07/18 04:01:04;;;;;;;5.20;4.70;;;;;;;;;;5116612;28;20453;-72
2022/07/18 04:03:31;;;;;;;6.70;5.63;;;;;;;;;;5116367;28;20449;-72
2022/07/18 04:05:58;;;;;;;6.67;4.70;;;;;;;;;;5116445;27;20488;-72
2022/07/18 04:08:25;;;;;;;5.47;4.17;;;;;;;;;;5116390;28;21323;-72
2022/07/18 04:10:52;;;;;;;4.30;3.90;;;;;;;;;;5116584;28;20449;-72
2022/07/18 04:13:21;;;;;;;5.50;5.00;;;;;;;;;;5116235;28;20470;-72
2022/07/18 04:15:48;;;;;;;6.03;4.23;;;;;;;;;;5116263;28;20446;-73
2022/07/18 04:18:15;;;;;;;5.93;4.07;;;;;;;;;;5116329;28;20545;-72
2022/07/18 04:20:42;;;;;;;4.93;3.87;;;;;;;;;;5116154;28;20461;-72
2022/07/18 04:23:11;;;;;;;5.03;3.93;;;;;;;;;;5115980;28;20474;-72
2022/07/18 04:25:39;;;;;;;6.70;4.17;;;;;;;;;;5115803;28;20453;-73
2022/07/18 04:28:06;;;;;;;4.50;3.47;;;;;;;;;;5115767;28;20959;-73
2022/07/18 04:30:35;;;;;;;4.50;3.50;;;;;;;;;;5115389;28;20449;-73
2022/07/18 04:33:03;;;;;;;4.50;4.10;;;;;;;;;;5115913;28;20465;-73
2022/07/18 04:35:31;;;;;;;4.60;4.20;;;;;;;;;;5115664;28;20499;-73
2022/07/18 04:37:58;;;;;;;3.90;3.60;;;;;;;;;;5115932;28;20453;-72
2022/07/18 04:40:25;;;;;;;8.67;3.30;;;;;;;;;;5115807;27;20458;-72
2022/07/18 04:42:52;;;;;;;3.73;3.23;;;;;;;;;;5116057;28;20513;-72
2022/07/18 04:45:21;;;;;;;3.30;2.83;;;;;;;;;;5115601;28;20449;-72
2022/07/18 04:47:50;;;;;;;3.43;3.13;;;;;;;;;;5115231;28;20590;-72
2022/07/18 04:50:18;;;;;;;3.40;3.10;;;;;;;;;;5115773;28;20481;-72
2022/07/18 04:52:46;;;;;;;4.70;3.00;;;;;;;;;;5115111;28;20982;-72
2022/07/18 04:55:14;;;;;;;4.10;3.00;;;;;;;;;;5115436;28;20452;-72
2022/07/18 04:57:41;;;;;;;3.60;3.20;;;;;;;;;;5115441;28;20877;-72
2022/07/18 05:00:10;;;;;;;3.90;3.60;;;;;;;;;;5114271;28;20453;-72
2022/07/18 05:02:39;;;;;;;6.10;3.97;;;;;;;;;;5114299;28;20481;-72
2022/07/18 05:05:09;;;;;;;3.80;3.40;;;;;;;;;;5114781;28;20445;-72
2022/07/18 05:07:36;;;;;;;3.43;3.13;;;;;;;;;;5114908;27;20515;-72
2022/07/18 05:10:07;;;;;;;3.60;3.07;;;;;;;;;;5115178;28;20448;-72
2022/07/18 05:12:34;;;;;;;3.57;3.07;;;;;;;;;;5115068;28;20476;-72
2022/07/18 05:15:01;;;;;;;3.40;3.10;;;;;;;;;;5114902;28;20445;-73
2022/07/18 05:17:29;;;;;;;4.47;3.90;;;;;;;;;;5114732;28;20445;-73
2022/07/18 05:19:56;;;;;;;4.03;3.40;;;;;;;;;;5115170;28;20481;-73
2022/07/18 05:22:24;;;;;;;4.87;3.60;;;;;;;;;;5112685;28;20476;-73
2022/07/18 05:24:52;;;;;;;4.50;3.93;;;;;;;;;;5113247;28;20494;-73
2022/07/18 05:27:19;;;;;;;4.47;3.80;;;;;;;;;;5111691;28;20489;-73
2022/07/18 05:29:46;;;;;;;4.27;3.70;;;;;;;;;;5113003;28;20540;-73
2022/07/18 05:32:13;;;;;;;4.20;3.40;;;;;;;;;;5104303;28;20494;-73
2022/07/18 05:34:40;;;;;;;4.53;3.47;;;;;;;;;;5102668;28;20452;-73
2022/07/18 05:37:07;;;;;;;5.13;3.60;;;;;;;;;;5113056;28;20445;-73
2022/07/18 05:39:36;;;;;;;5.43;3.30;;;;;;;;;;5111693;28;20510;-73
2022/07/18 05:42:03;;;;;;;4.70;3.37;;;;;;;;;;5113035;28;20973;-73
2022/07/18 05:44:30;;;;;;;4.50;2.93;;;;;;;;;;5112814;28;20464;-73
2022/07/18 05:46:57;;;;;;;6.73;3.20;;;;;;;;;;5112912;28;20590;-73
2022/07/18 05:49:24;;;;;;;7.47;3.30;;;;;;;;;;5112887;28;20449;-73
2022/07/18 05:51:51;;;;;;;5.03;3.93;;;;;;;;;;5112475;28;20476;-73
2022/07/18 05:54:19;;;;;;;8.03;3.30;;;;;;;;;;5112333;28;20452;-74
2022/07/18 05:56:48;;;;;;;3.07;2.77;;;;;;;;;;5113060;28;20445;-73
2022/07/18 05:59:16;;;;;;;2.73;2.53;;;;;;;;;;5113495;28;20444;-73
2022/07/18 06:01:43;;;;;;;3.50;3.20;;;;;;;;;;5114128;28;20846;-73
2022/07/18 06:04:10;;;;;;;3.80;2.80;;;;;;;;;;5113624;28;20449;-73
2022/07/18 06:06:38;;;;;;;4.63;2.73;;;;;;;;;;5114029;28;20227;-73
2022/07/18 06:09:05;;;;;;;4.43;2.97;;;;;;;;;;5114067;28;20203;-73
2022/07/18 06:11:33;;;;;;;3.77;2.90;;;;;;;;;;5113787;28;20723;-73
2022/07/18 06:14:02;;;;;;;3.30;3.00;;;;;;;;;;5113862;28;20580;-73
2022/07/18 06:16:29;;;;;;;3.03;2.70;;;;;;;;;;5113898;28;20230;-71
2022/07/18 06:18:56;;;;;;;3.40;3.10;;;;;;;;;;5114067;28;20242;-70
2022/07/18 06:21:24;;;;;;;3.13;2.83;;;;;;;;;;5113844;28;20227;-70
2022/07/18 06:23:51;;;;;;;6.23;3.20;;;;;;;;;;5113606;28;20218;-70
2022/07/18 06:26:18;;;;;;;3.30;2.80;;;;;;;;;;5113545;28;20237;-70
2022/07/18 06:28:45;;;;;;;4.20;3.20;;;;;;;;;;5113994;28;20210;-71
2022/07/18 06:31:15;;;;;;;2.83;2.63;;;;;;;;;;5113790;28;20207;-71
2022/07/18 06:33:43;;;;;;;4.57;3.43;;;;;;;;;;5113532;28;20675;-71
2022/07/18 06:36:11;;;;;;;2.90;2.60;;;;;;;;;;5113866;28;20218;-72
2022/07/18 06:38:39;;;;;;;6.30;3.57;;;;;;;;;;5113690;28;20211;-73
2022/07/18 06:41:06;;;;;;;3.73;2.97;;;;;;;;;;5113613;28;20483;-73
2022/07/18 06:43:33;;;;;;;5.03;3.40;;;;;;;;;;5113572;28;20451;-73
2022/07/18 06:46:00;;;;;;;4.13;3.03;;;;;;;;;;5112817;27;20472;-73
2022/07/18 06:48:32;;;;;;;3.30;3.00;;;;;;;;;;5113212;28;20484;-73
2022/07/18 06:51:00;;;;;;;4.30;3.10;;;;;;;;;;5113666;28;20448;-73
2022/07/18 06:53:27;;;;;;;3.23;2.93;;;;;;;;;;5112110;28;20519;-73
2022/07/18 06:55:54;;;;;;;3.23;2.90;;;;;;;;;;5113168;28;20456;-73
2022/07/18 06:58:22;;;;;;;4.53;2.70;;;;;;;;;;5113377;28;20980;-73
2022/07/18 07:00:49;;;;;;;3.00;2.60;;;;;;;;;;5113388;28;20453;-73
2022/07/18 07:03:16;;;;;;;3.60;3.30;;;;;;;;;;5113159;28;20233;-73
2022/07/18 07:05:45;;;;;;;3.50;3.20;;;;;;;;;;5113008;28;20238;-73
2022/07/18 07:08:12;;;;;;;3.93;3.00;;;;;;;;;;5113103;28;20718;-73
2022/07/18 07:10:40;;;;;;;3.63;3.17;;;;;;;;;;5109556;28;20208;-74
2022/07/18 07:13:07;;;;;;;3.95;3.08;;;;;;;;;;5110155;28;20231;-74
2022/07/18 07:15:34;;;;;;;4.30;3.47;;;;;;;;;;5111997;28;20572;-74
2022/07/18 07:18:01;;;;;;;4.33;3.43;;;;;;;;;;5111940;28;20207;-74
2022/07/18 07:20:28;;;;;;;5.37;3.73;;;;;;;;;;5111524;28;20204;-74
2022/07/18 07:22:57;;;;;;;5.27;3.80;;;;;;;;;;5111517;28;20238;-74
2022/07/18 07:25:25;;;;;;;8.60;4.93;;;;;;;;;;5111243;28;20210;-74
2022/07/18 07:27:53;;;;;;;7.87;4.07;;;;;;;;;;5111525;28;20237;-74
2022/07/18 07:30:20;;;;;;;5.50;4.13;;;;;;;;;;5111795;28;20222;-74
2022/07/18 07:32:48;;;;;;;5.90;3.77;;;;;;;;;;5111591;28;20237;-74
2022/07/18 07:35:16;;;;;;;6.07;4.13;;;;;;;;;;5111327;28;20563;-74
2022/07/18 07:37:44;;;;;;;6.07;3.60;;;;;;;;;;5110188;28;20822;-74
2022/07/18 07:40:13;;;;;;;6.17;3.80;;;;;;;;;;5111657;28;20456;-74
2022/07/18 07:42:40;;;;;;;9.70;4.17;;;;;;;;;;5111397;28;20468;-73
2022/07/18 07:45:08;;;;;;;4.77;3.40;;;;;;;;;;5111405;28;20449;-73
2022/07/18 07:47:35;;;;;;;6.03;3.30;;;;;;;;;;5111393;28;20480;-73
2022/07/18 07:50:02;;;;;;;4.57;3.23;;;;;;;;;;5110913;28;20456;-73
2022/07/18 07:52:30;;;;;;;5.03;3.17;;;;;;;;;;5110790;28;20477;-73
2022/07/18 07:54:57;;;;;;;4.20;3.60;;;;;;;;;;5111293;28;20452;-73
2022/07/18 07:57:25;;;;;;;5.10;3.30;;;;;;;;;;5110867;28;20441;-73
2022/07/18 07:59:53;;;;;;;5.03;2.90;;;;;;;;;;5111193;28;20514;-73
2022/07/18 08:02:20;;;;;;;4.70;2.73;;;;;;;;;;5111082;28;21000;-73
2022/07/18 08:04:47;;;;;;;4.27;2.90;;;;;;;;;;5113046;27;20965;-73
2022/07/18 08:07:14;;;;;;;6.53;3.40;;;;;;;;;;5114883;28;20887;-73
2022/07/18 08:09:41;;;;;;;8.60;3.57;;;;;;;;;;5115310;28;20493;-73
2022/07/18 08:12:08;;;;;;;3.43;3.10;;;;;;;;;;5115903;28;20481;-73
2022/07/18 08:14:39;;;;;;;3.90;2.73;;;;;;;;;;5115948;28;20448;-74
2022/07/18 08:17:07;;;;;;;5.50;3.43;;;;;;;;;;5115955;28;20815;-74
2022/07/18 08:19:34;;;;;;;3.13;2.83;;;;;;;;;;5115930;28;20799;-74
2022/07/18 08:22:01;;;;;;;2.87;2.67;;;;;;;;;;5116189;28;20468;-73
2022/07/18 08:24:28;;;;;;;6.40;4.37;;;;;;;;;;5113029;28;20452;-74
2022/07/18 08:26:55;;;;;;;3.37;3.07;;;;;;;;;;5114503;28;20464;-73
2022/07/18 08:29:22;;;;;;;5.10;3.50;;;;;;;;;;5115605;28;20456;-73
2022/07/18 08:31:50;;;;;;;6.30;2.90;;;;;;;;;;5115865;28;20476;-73
2022/07/18 08:34:18;;;;;;;6.70;3.13;;;;;;;;;;5114120;27;20825;-73
2022/07/18 08:36:45;;;;;;;3.07;2.57;;;;;;;;;;5115723;28;20445;-73
2022/07/18 08:39:12;;;;;;;3.27;2.97;;;;;;;;;;5115679;28;20457;-73
2022/07/18 08:41:40;;;;;;;2.87;2.57;;;;;;;;;;5114875;28;20465;-73
2022/07/18 08:44:09;;;;;;;7.00;2.80;;;;;;;;;;5115636;28;20937;-73
2022/07/18 08:46:38;;;;;;;4.20;2.80;;;;;;;;;;5115760;27;20453;-73
2022/07/18 08:49:06;;;;;;;6.10;2.10;;;;;;;;;;5115842;28;20481;-73
2022/07/18 08:51:34;;;;;;;4.60;2.80;;;;;;;;;;5115133;28;20476;-73
2022/07/18 08:54:02;;;;;;;3.20;2.50;;;;;;;;;;5115516;28;20945;-73
2022/07/18 08:56:29;;;;;;;3.67;2.43;;;;;;;;;;5115331;28;20456;-73
2022/07/18 08:58:56;;;;;;;8.33;2.90;;;;;;;;;;5115724;28;20801;-73
2022/07/18 09:01:23;;;;;;;2.97;2.53;;;;;;;;;;5115363;28;20487;-73
2022/07/18 09:06:42;;;;;;;3.47;2.80;;;;;;;;;;5115014;28;20433;-73
2022/07/18 09:09:12;;;;;;;3.43;2.70;;;;;;;;;;5115294;28;20489;-73
2022/07/18 09:11:50;;;;;;;4.47;3.20;;;;;;;;;;5115332;28;20469;-73
2022/07/18 09:14:28;;;;;;;11.20;2.90;;;;;;;;;;5114896;28;20449;-73
2022/07/18 09:17:00;;;;;;;3.50;2.80;;;;;;;;;;5115263;28;20445;-73
2022/07/18 09:19:27;;;;;;;3.50;2.70;;;;;;;;;;5115147;28;20456;-73
2022/07/18 09:21:56;;;;;;;2.43;2.23;;;;;;;;;;5115230;27;20465;-73
2022/07/18 09:24:23;;;;;;;2.97;2.67;;;;;;;;;;5114737;28;21033;-73
2022/07/18 09:26:52;;;;;;;2.50;2.30;;;;;;;;;;5114821;28;20953;-73
2022/07/18 09:29:20;;;;;;;5.63;2.27;;;;;;;;;;5114765;28;20526;-73
2022/07/18 09:31:50;;;;;;;2.90;2.10;;;;;;;;;;5114795;28;20514;-74
2022/07/18 09:34:33;;;;;;;4.27;2.37;;;;;;;;;;5114900;28;20860;-74
2022/07/18 09:37:01;;;;;;;2.37;2.17;;;;;;;;;;5114826;28;20822;-73
2022/07/18 09:39:29;;;;;;;2.70;2.50;;;;;;;;;;5114734;28;20442;-73
2022/07/18 09:42:13;;;;;;;5.20;2.17;;;;;;;;;;5114685;28;20469;-73
2022/07/18 09:44:40;;;;;;;5.67;2.30;;;;;;;;;;5114503;28;20909;-73
2022/07/18 09:47:07;;;;;;;9.00;2.40;;;;;;;;;;5114508;28;20868;-73
2022/07/18 09:49:36;;;;;;;5.43;2.77;;;;;;;;;;5114821;28;20865;-73
2022/07/18 09:52:06;;;;;;;3.00;2.23;;;;;;;;;;5114031;28;21057;-73
2022/07/18 09:54:40;;;;;;;2.60;2.30;;;;;;;;;;5114132;28;20447;-73
2022/07/18 09:57:07;;;;;;;6.40;2.40;;;;;;;;;;5114338;28;20449;-73
2022/07/18 09:59:35;;;;;;;3.00;2.37;;;;;;;;;;5114565;28;20448;-73
2022/07/18 10:02:03;;;;;;;3.50;2.10;;;;;;;;;;5114427;28;20830;-73
2022/07/18 10:04:31;;;;;;;2.33;2.13;;;;;;;;;;5114020;28;20783;-73
2022/07/18 10:06:58;;;;;;;2.53;2.00;;;;;;;;;;5114176;28;20441;-73
2022/07/18 10:09:26;;;;;;;2.30;1.93;;;;;;;;;;5114070;28;20481;-73
2022/07/18 10:11:54;;;;;;;3.10;2.70;;;;;;;;;;5114230;28;20473;-73
2022/07/18 10:14:22;;;;;;;5.83;2.07;;;;;;;;;;5113756;28;20454;-73
2022/07/18 10:16:49;;;;;;;2.53;1.80;;;;;;;;;;5114113;28;20453;-73
2022/07/18 10:19:16;;;;;;;2.33;1.97;;;;;;;;;;5114036;28;20442;-73
2022/07/18 10:21:46;;;;;;;2.50;2.30;;;;;;;;;;5114042;28;20470;-73
2022/07/18 10:24:14;;;;;;;4.03;2.17;;;;;;;;;;5113734;28;20446;-73
2022/07/18 10:26:43;;;;;;;3.50;2.13;;;;;;;;;;5113139;28;20811;-73
2022/07/18 10:29:10;;;;;;;2.53;2.20;;;;;;;;;;5113728;28;20481;-73
2022/07/18 10:31:42;;;;;;;2.70;2.00;;;;;;;;;;5113624;28;20470;-73
2022/07/18 10:34:13;;;;;;;3.30;2.00;;;;;;;;;;5113540;28;20453;-73
2022/07/18 10:36:41;;;;;;;5.30;3.13;;;;;;;;;;5113847;28;20950;-73
2022/07/18 10:39:09;;;;;;;2.80;2.20;;;;;;;;;;5113888;28;20965;-73
2022/07/18 10:44:39;;;;;;;3.13;2.20;;;;;;;;;;5110866;27;20549;-74
2022/07/18 10:47:08;;;;;;;4.70;2.70;;;;;;;;;;5110989;28;20456;-74
2022/07/18 10:49:56;;;;;;;3.00;2.10;;;;;;;;;;5110996;28;20502;-74
2022/07/18 10:52:38;;;;;;;2.37;1.97;;;;;;;;;;5110577;28;20472;-74
2022/07/18 10:55:24;;;;;;;3.07;2.20;;;;;;;;;;5110649;28;20492;-74
2022/07/18 10:58:06;;;;;;;2.90;1.57;;;;;;;;;;5110969;28;20978;-74
2022/07/18 11:00:36;;;;;;;2.83;1.67;;;;;;;;;;5110461;28;20891;-74
2022/07/18 11:03:05;;;;;;;3.40;1.90;;;;;;;;;;5110452;28;20489;-74
2022/07/18 11:05:34;;;;;;;1.90;1.70;;;;;;;;;;5110382;28;20461;-74
2022/07/18 11:08:18;;;;;;;3.37;2.00;;;;;;;;;;5110597;28;20449;-74
2022/07/18 11:11:04;;;;;;;10.77;1.97;;;;;;;;;;5110737;28;20450;-74
2022/07/18 11:13:32;;;;;;;3.40;1.87;;;;;;;;;;5110274;28;20824;-74
2022/07/18 11:16:04;;;;;;;2.50;2.20;;;;;;;;;;5110357;28;20453;-74
2022/07/18 11:18:31;;;;;;;2.17;1.63;;;;;;;;;;5110518;28;20450;-74
2022/07/18 11:20:59;;;;;;;2.20;1.67;;;;;;;;;;5110285;28;20465;-74
2022/07/18 11:23:26;;;;;;;1.50;1.30;;;;;;;;;;5110129;28;20493;-74
2022/07/18 11:25:56;;;;;;;2.37;1.80;;;;;;;;;;5110257;28;20457;-74
2022/07/18 11:28:23;;;;;;;3.77;2.00;;;;;;;;;;5110085;28;20472;-74
2022/07/18 11:31:01;;;;;;;2.20;1.60;;;;;;;;;;5110223;28;20450;-74
2022/07/18 11:33:30;;;;;;;3.17;1.97;;;;;;;;;;5109921;28;20468;-74
2022/07/18 11:36:04;;;;;;;3.80;1.67;;;;;;;;;;5110133;28;20450;-74
2022/07/18 11:38:31;;;;;;;3.20;1.83;;;;;;;;;;5110034;28;20446;-74
2022/07/18 11:40:58;;;;;;;2.00;1.50;;;;;;;;;;5109992;28;20453;-74
2022/07/18 11:43:25;;;;;;;5.30;1.90;;;;;;;;;;5109464;28;20496;-74
2022/07/18 11:46:04;;;;;;;3.60;1.80;;;;;;;;;;5109935;28;20456;-74
2022/07/18 11:48:31;;;;;;;2.73;1.70;;;;;;;;;;5109514;28;20473;-73
2022/07/18 11:50:58;;;;;;;2.27;1.97;;;;;;;;;;5109699;28;20458;-73
2022/07/18 11:53:25;;;;;;;7.33;1.80;;;;;;;;;;5109158;28;20478;-73
2022/07/18 11:55:53;;;;;;;2.37;1.67;;;;;;;;;;5096004;28;20462;-74
2022/07/18 11:58:21;;;;;;;3.73;1.73;;;;;;;;;;5095862;28;20568;-73
2022/07/18 12:00:50;;;;;;;2.63;1.80;;;;;;;;;;5096057;28;20936;-74
2022/07/18 12:03:19;;;;;;;4.53;2.27;;;;;;;;;;5095673;28;20577;-73
2022/07/18 12:05:48;;;;;;;2.00;1.80;;;;;;;;;;5095821;28;20801;-73
2022/07/18 12:08:35;;;;;;;1.80;1.70;;;;;;;;;;5095692;28;20457;-73
2022/07/18 12:11:17;;;;;;;2.87;1.70;;;;;;;;;;5095929;28;20508;-73
2022/07/18 12:13:48;;;;;;;2.77;1.90;;;;;;;;;;5095669;28;20926;-74
2022/07/18 12:16:36;;;;;;;2.20;1.60;;;;;;;;;;5095634;28;20455;-73
2022/07/18 12:19:10;;;;;;;2.27;1.63;;;;;;;;;;5090849;28;20490;-73
2022/07/18 12:21:42;;;;;;;2.90;1.90;;;;;;;;;;5095604;28;20485;-73
2022/07/18 12:24:19;;;;;;;5.60;1.60;;;;;;;;;;5095182;28;20482;-73
2022/07/18 12:26:46;;;;;;;2.57;1.70;;;;;;;;;;5095396;28;20457;-73
2022/07/18 12:29:13;;;;;;;2.13;1.63;;;;;;;;;;5095405;28;20451;-73
2022/07/18 12:31:41;;;;;;;2.00;1.80;;;;;;;;;;5095363;28;20562;-73
2022/07/18 12:34:10;;;;;;;2.50;2.00;;;;;;;;;;5095022;28;20500;-73
2022/07/18 12:36:51;;;;;;;4.60;1.63;;;;;;;;;;5095502;28;20896;-73
2022/07/18 12:39:26;;;;;;;4.53;2.00;;;;;;;;;;5095126;28;20955;-73
2022/07/18 12:41:53;;;;;;;1.90;1.70;;;;;;;;;;5095167;28;20489;-73
2022/07/18 12:44:20;;;;;;;3.37;2.00;;;;;;;;;;5094762;28;20522;-73
2022/07/18 12:46:47;;;;;;;2.20;1.87;;;;;;;;;;5094994;28;20446;-73
2022/07/18 12:49:16;;;;;;;3.40;1.60;;;;;;;;;;5095208;28;20455;-73
2022/07/18 12:51:43;;;;;;;2.77;1.83;;;;;;;;;;5094701;28;20466;-73
2022/07/18 12:54:10;;;;;;;3.40;1.80;;;;;;;;;;5095013;28;20442;-74
2022/07/18 12:56:37;;;;;;;2.17;1.77;;;;;;;;;;5094863;28;20446;-73
2022/07/18 12:59:05;;;;;;;1.97;1.67;;;;;;;;;;5094837;28;20446;-73
2022/07/18 13:01:32;;;;;;;2.90;1.70;;;;;;;;;;5094673;28;20528;-73
2022/07/18 13:03:59;;;;;;;4.00;1.70;;;;;;;;;;5094573;28;20494;-73
2022/07/18 13:06:28;;;;;;;2.33;1.83;;;;;;;;;;5093706;28;20508;-73
2022/07/18 13:08:55;;;;;;;2.73;1.93;;;;;;;;;;5094825;28;20458;-73
2022/07/18 13:11:22;;;;;;;1.90;1.70;;;;;;;;;;5094596;28;20457;-73
2022/07/18 13:13:49;;;;;;;3.17;1.70;;;;;;;;;;5094762;28;20453;-74
2022/07/18 13:16:16;;;;;;;4.77;4.37;;;;;;;;;;5094437;28;20466;-73
2022/07/18 13:18:43;;;;;;;2.37;1.90;;;;;;;;;;5094526;28;20450;-76
2022/07/18 13:21:12;;;;;;;4.80;1.57;;;;;;;;;;5094588;28;20496;-75
2022/07/18 13:23:42;;;;;;;2.23;1.57;;;;;;;;;;5094500;28;20544;-74
2022/07/18 13:26:09;;;;;;;3.00;1.73;;;;;;;;;;5094684;28;20936;-74
2022/07/18 13:28:36;;;;;;;2.90;1.83;;;;;;;;;;5094386;28;20801;-72
2022/07/18 13:31:03;;;;;;;1.90;1.60;;;;;;;;;;5094634;28;20963;-73
2022/07/18 13:33:30;;;;;;;3.00;1.70;;;;;;;;;;5092495;28;20447;-73
2022/07/18 13:35:57;;;;;;;7.70;1.97;;;;;;;;;;5092371;28;20459;-73
2022/07/18 13:38:24;;;;;;;2.17;1.97;;;;;;;;;;5092485;28;20458;-73
2022/07/18 13:40:53;;;;;;;2.30;1.80;;;;;;;;;;5092577;28;20461;-74
2022/07/18 13:43:20;;;;;;;2.77;1.80;;;;;;;;;;5092461;28;20874;-73
2022/07/18 13:45:47;;;;;;;3.50;1.77;;;;;;;;;;5092350;28;20447;-73
2022/07/18 13:48:14;;;;;;;3.43;2.00;;;;;;;;;;5092276;28;20458;-74
2022/07/18 13:50:41;;;;;;;2.07;1.60;;;;;;;;;;5092645;28;20446;-74
2022/07/18 13:53:08;;;;;;;5.87;1.80;;;;;;;;;;5089634;28;20478;-74
2022/07/18 13:55:36;;;;;;;5.53;2.07;;;;;;;;;;5072253;28;20469;-74
2022/07/18 13:58:04;;;;;;;2.33;1.60;;;;;;;;;;5072146;28;20456;-73
2022/07/18 14:00:32;;;;;;;3.50;1.83;;;;;;;;;;5071889;28;20494;-73
2022/07/18 14:02:59;;;;;;;4.27;2.17;;;;;;;;;;5071933;28;20476;-73
2022/07/18 14:05:26;;;;;;;2.57;2.00;;;;;;;;;;5071605;28;20917;-73
2022/07/18 14:07:53;;;;;;;3.00;2.10;;;;;;;;;;5072126;28;20448;-73
2022/07/18 14:10:20;;;;;;;2.17;1.70;;;;;;;;;;5071665;28;20805;-73
2022/07/18 14:12:47;;;;;;;3.97;1.90;;;;;;;;;;5071830;28;20507;-73
2022/07/18 14:15:16;;;;;;;2.00;1.80;;;;;;;;;;5071471;28;20790;-73
2022/07/18 14:17:43;;;;;;;3.47;2.03;;;;;;;;;;5071504;28;20455;-73
2022/07/18 14:20:10;;;;;;;3.40;1.70;;;;;;;;;;5071665;28;20447;-73
2022/07/18 14:22:38;;;;;;;2.70;1.70;;;;;;;;;;5071627;28;20972;-73
2022/07/18 14:25:06;;;;;;;2.97;2.03;;;;;;;;;;5071230;28;20906;-73
2022/07/18 14:27:33;;;;;;;4.23;1.73;;;;;;;;;;5071547;28;20963;-73
2022/07/18 14:30:01;;;;;;;5.20;1.57;;;;;;;;;;5071770;28;20456;-73
2022/07/18 14:32:29;;;;;;;6.77;6.17;;;;;;;;;;5071195;28;20482;-73
2022/07/18 14:34:56;;;;;;;4.17;2.10;;;;;;;;;;5071640;28;20452;-73
2022/07/18 14:37:24;;;;;;;8.73;3.17;;;;;;;;;;5071337;28;20850;-73
2022/07/18 14:39:51;;;;;;;3.50;1.90;;;;;;;;;;5071324;28;20870;-73
2022/07/18 14:42:18;;;;;;;1.87;1.60;;;;;;;;;;5071054;28;20483;-74
2022/07/18 14:44:45;;;;;;;1.97;1.67;;;;;;;;;;5071288;28;20849;-73
2022/07/18 14:47:12;;;;;;;3.20;1.40;;;;;;;;;;5071146;28;20478;-73
2022/07/18 14:49:41;;;;;;;2.90;1.50;;;;;;;;;;5071495;28;20483;-73
2022/07/18 14:52:08;;;;;;;2.20;1.53;;;;;;;;;;5071039;28;21076;-73
2022/07/18 14:54:35;;;;;;;2.03;1.30;;;;;;;;;;5071214;28;20872;-73
2022/07/18 14:57:03;;;;;;;1.90;1.50;;;;;;;;;;5071740;28;20933;-73
2022/07/18 14:59:30;;;;;;;3.17;1.60;;;;;;;;;;5071316;28;20448;-73